X  Fermer Données météorologiques d'aviation de Metar     EHKD De Kooy Airport
Température
10°C Température
6°C Point de rosée
76% Humidité



Vent
7 M/S
15 MPH
24 KM/H
13 KTS



340°
NNO
Conditions actuelles

Nuages épars Nuages épars
Pression 1003.05 (hPa) - 29.62 (inHg)
Visibilité 6 (mile) - 9.7 (km)
Aéroport
Code de l'aéroport EHKD

Emplacement: De Kooy Airport
Distance: 34 (km)

Metar:
EHKD 161055Z AUTO 34013KT 290V030 9999 SCT016 BKN020 BKN024 10/06 Q1003 WHT TEMPO 4000 SHRA FEW010 SCT015CB BKN020

Temps: 16-04-2024 12:55 CEST